sensor_id;sensor_type;location;lat;lon;timestamp;P1;durP1;ratioP1;P2;durP2;ratioP2
20314;SDS011;10315;50.958;13.080;2023-02-18T00:02:04;7.07;;;4.17;;
20314;SDS011;10315;50.958;13.080;2023-02-18T00:12:07;8.70;;;3.50;;
20314;SDS011;10315;50.958;13.080;2023-02-18T00:22:08;7.57;;;2.97;;
20314;SDS011;10315;50.958;13.080;2023-02-18T00:32:11;5.47;;;2.10;;
20314;SDS011;10315;50.958;13.080;2023-02-18T00:42:13;8.67;;;2.53;;
20314;SDS011;10315;50.958;13.080;2023-02-18T00:52:16;5.60;;;2.23;;
20314;SDS011;10315;50.958;13.080;2023-02-18T01:02:17;8.40;;;2.80;;
20314;SDS011;10315;50.958;13.080;2023-02-18T01:12:20;8.43;;;3.63;;
20314;SDS011;10315;50.958;13.080;2023-02-18T01:22:22;10.80;;;4.37;;
20314;SDS011;10315;50.958;13.080;2023-02-18T01:32:25;12.97;;;4.83;;
20314;SDS011;10315;50.958;13.080;2023-02-18T01:42:27;13.00;;;5.50;;
20314;SDS011;10315;50.958;13.080;2023-02-18T01:52:31;14.37;;;5.53;;
20314;SDS011;10315;50.958;13.080;2023-02-18T02:02:34;13.20;;;5.40;;
20314;SDS011;10315;50.958;13.080;2023-02-18T02:12:55;12.90;;;5.27;;
20314;SDS011;10315;50.958;13.080;2023-02-18T02:44:33;11.57;;;5.17;;
20314;SDS011;10315;50.958;13.080;2023-02-18T02:54:42;9.07;;;4.30;;
20314;SDS011;10315;50.958;13.080;2023-02-18T03:04:49;13.50;;;4.07;;
20314;SDS011;10315;50.958;13.080;2023-02-18T03:15:13;9.87;;;4.20;;
20314;SDS011;10315;50.958;13.080;2023-02-18T03:25:23;8.37;;;3.77;;
20314;SDS011;10315;50.958;13.080;2023-02-18T03:35:32;10.30;;;4.40;;
20314;SDS011;10315;50.958;13.080;2023-02-18T03:45:42;10.23;;;4.33;;
20314;SDS011;10315;50.958;13.080;2023-02-18T03:55:44;19.13;;;6.00;;
20314;SDS011;10315;50.958;13.080;2023-02-18T04:05:46;19.00;;;5.20;;
20314;SDS011;10315;50.958;13.080;2023-02-18T04:15:49;18.67;;;7.33;;
20314;SDS011;10315;50.958;13.080;2023-02-18T04:25:52;18.93;;;7.33;;
20314;SDS011;10315;50.958;13.080;2023-02-18T04:35:54;21.03;;;6.73;;
20314;SDS011;10315;50.958;13.080;2023-02-18T04:45:57;17.27;;;6.50;;
20314;SDS011;10315;50.958;13.080;2023-02-18T04:55:59;20.03;;;7.40;;
20314;SDS011;10315;50.958;13.080;2023-02-18T05:06:02;22.33;;;6.93;;
20314;SDS011;10315;50.958;13.080;2023-02-18T05:16:04;19.90;;;7.63;;
20314;SDS011;10315;50.958;13.080;2023-02-18T05:26:07;18.60;;;7.10;;
20314;SDS011;10315;50.958;13.080;2023-02-18T05:36:08;22.70;;;7.33;;
20314;SDS011;10315;50.958;13.080;2023-02-18T05:46:14;17.37;;;6.70;;
20314;SDS011;10315;50.958;13.080;2023-02-18T05:56:15;17.13;;;6.83;;
20314;SDS011;10315;50.958;13.080;2023-02-18T06:06:25;19.47;;;6.47;;
20314;SDS011;10315;50.958;13.080;2023-02-18T06:16:27;16.93;;;6.70;;
20314;SDS011;10315;50.958;13.080;2023-02-18T06:26:31;16.70;;;6.17;;
20314;SDS011;10315;50.958;13.080;2023-02-18T06:36:33;12.87;;;5.70;;
20314;SDS011;10315;50.958;13.080;2023-02-18T06:46:36;20.40;;;6.67;;
20314;SDS011;10315;50.958;13.080;2023-02-18T06:56:37;21.23;;;8.57;;
20314;SDS011;10315;50.958;13.080;2023-02-18T07:06:40;21.57;;;9.10;;
20314;SDS011;10315;50.958;13.080;2023-02-18T07:16:42;18.47;;;8.27;;
